Time;durP1;ratioP1;P1;durP2;ratioP2;P2;SDS_P1;SDS_P2;PMS_P1;PMS_P2;Temp;Humidity;BMP_temperature;BMP_pressure;BME280_temperature;BME280_humidity;BME280_pressure;Samples;Min_cycle;Max_cycle;Signal;HPM_P1;HPM_P2
2023/05/12 00:02:11;;;;;;;15.30;5.63;;;;;;;10.31;91.57;100479.63;5056462;28;20139;-81
2023/05/12 00:04:39;;;;;;;8.77;5.43;;;;;;;10.26;91.99;100483.16;5057054;28;20035;-79
2023/05/12 00:07:06;;;;;;;8.55;4.50;;;;;;;10.24;92.34;100482.84;5057587;28;20025;-82
2023/05/12 00:09:46;;;;;;;8.63;4.38;;;;;;;10.20;92.63;100479.41;5055822;28;20024;-83
2023/05/12 00:12:12;;;;;;;10.80;5.60;;;;;;;10.06;92.94;100474.41;5057087;28;20028;-81
2023/05/12 00:14:43;;;;;;;9.52;4.70;;;;;;;10.13;92.87;100473.28;5055528;28;20118;-81
2023/05/12 00:17:10;;;;;;;;;;;;;;;10.02;94.22;100485.22;5056937;28;20078;-76
2023/05/12 00:19:35;;;;;;;11.65;5.93;;;;;;;9.96;94.06;100475.75;5055041;28;19916;-77
2023/05/12 00:22:02;;;;;;;8.20;5.20;;;;;;;9.97;94.37;100480.97;5054918;28;20029;-77
2023/05/12 00:24:29;;;;;;;11.38;4.85;;;;;;;9.93;94.99;100471.81;5055213;28;20033;-75
2023/05/12 00:26:55;;;;;;;6.72;5.28;;;;;;;9.87;95.72;100464.38;5056139;28;20481;-77
2023/05/12 00:29:21;;;;;;;8.50;5.25;;;;;;;9.83;96.07;100478.84;5054931;28;20021;-76
2023/05/12 00:31:47;;;;;;;7.65;5.20;;;;;;;9.82;96.07;100482.97;5056287;28;20021;-75
2023/05/12 00:34:13;;;;;;;8.15;5.30;;;;;;;9.78;96.38;100476.66;5056005;28;20493;-75
2023/05/12 00:36:40;;;;;;;10.95;5.07;;;;;;;9.72;96.46;100478.53;5056035;28;20021;-76
2023/05/12 00:39:06;;;;;;;8.48;4.80;;;;;;;9.73;97.13;100471.59;5056166;28;20021;-77
2023/05/12 00:41:31;;;;;;;9.75;5.65;;;;;;;9.69;97.56;100483.13;5055505;28;20032;-76
2023/05/12 00:43:57;;;;;;;10.13;5.55;;;;;;;9.65;97.36;100478.88;5053946;28;20028;-77
2023/05/12 00:46:22;;;;;;;6.72;5.00;;;;;;;9.58;97.28;100488.59;5036666;28;20108;-78
2023/05/12 00:48:48;;;;;;;9.18;4.97;;;;;;;9.54;97.80;100485.13;5053137;28;20343;-77
2023/05/12 00:51:15;;;;;;;7.43;4.95;;;;;;;9.49;97.68;100476.44;5053332;28;20028;-78
2023/05/12 00:53:48;;;;;;;9.65;5.25;;;;;;;9.47;98.82;100482.59;5054632;28;20108;-77
2023/05/12 00:56:15;;;;;;;8.45;4.90;;;;;;;9.44;99.49;100480.72;5036735;28;20068;-76
2023/05/12 00:58:43;;;;;;;7.95;4.78;;;;;;;9.36;99.39;100482.31;5054332;28;20035;-78
2023/05/12 01:01:08;;;;;;;8.68;5.65;;;;;;;9.32;100.00;100484.56;5054462;28;20039;-77
2023/05/12 01:03:36;;;;;;;9.63;5.40;;;;;;;9.29;100.00;100487.59;5036358;28;20045;-76
2023/05/12 01:06:20;;;;;;;8.65;4.72;;;;;;;9.32;100.00;100480.91;5053887;28;20067;-77
2023/05/12 01:08:47;;;;;;;12.32;4.95;;;;;;;9.30;100.00;100494.88;5053872;28;20036;-78
2023/05/12 01:11:18;;;;;;;12.30;5.13;;;;;;;9.29;100.00;100493.28;5053231;28;20028;-76
2023/05/12 01:13:44;;;;;;;11.10;5.45;;;;;;;9.24;100.00;100489.81;5052759;28;20044;-77
2023/05/12 01:16:11;;;;;;;10.50;4.72;;;;;;;9.23;100.00;100491.09;5054359;28;20355;-75
2023/05/12 01:18:38;;;;;;;8.25;4.75;;;;;;;9.23;100.00;100496.00;5037318;28;20447;-75
2023/05/12 01:21:18;;;;;;;11.75;5.60;;;;;;;9.22;100.00;100492.34;5038143;28;20041;-77
2023/05/12 01:23:51;;;;;;;9.55;5.15;;;;;;;9.19;100.00;100501.06;5059151;28;20035;-75
2023/05/12 01:26:17;;;;;;;7.55;4.88;;;;;;;9.14;100.00;100499.66;5054623;28;20033;-76
2023/05/12 01:28:43;;;;;;;9.45;5.47;;;;;;;9.08;100.00;100497.91;5054224;28;20032;-77
2023/05/12 01:31:10;;;;;;;9.50;5.22;;;;;;;9.08;100.00;100493.00;5037601;28;20102;-76
2023/05/12 01:33:35;;;;;;;8.63;5.30;;;;;;;9.05;100.00;100499.66;5055002;28;20430;-76
2023/05/12 01:36:02;;;;;;;8.75;5.38;;;;;;;9.00;100.00;100499.53;5053527;28;20124;-78
2023/05/12 01:38:27;;;;;;;12.35;6.03;;;;;;;8.93;100.00;100499.84;5055201;28;20029;-76
2023/05/12 01:40:54;;;;;;;9.02;4.97;;;;;;;8.93;100.00;100500.63;5036937;28;20020;-76
2023/05/12 01:43:21;;;;;;;8.85;5.13;;;;;;;8.93;100.00;100506.34;5053681;28;20442;-78
2023/05/12 01:45:46;;;;;;;11.15;5.57;;;;;;;8.89;100.00;100504.91;5036806;28;20120;-77
2023/05/12 01:48:11;;;;;;;8.00;5.80;;;;;;;8.87;100.00;100502.53;5054854;28;20095;-77
2023/05/12 01:50:38;;;;;;;9.70;5.43;;;;;;;8.80;100.00;100503.66;5054673;28;20031;-77
2023/05/12 01:53:26;;;;;;;8.80;5.25;;;;;;;8.78;100.00;100503.34;5036782;28;20017;-77
2023/05/12 01:55:52;;;;;;;10.15;5.78;;;;;;;8.74;100.00;100510.47;5054369;28;20029;-76
2023/05/12 01:58:19;;;;;;;9.82;5.97;;;;;;;8.70;100.00;100509.84;5054672;28;20025;-77
2023/05/12 02:00:44;;;;;;;9.98;5.70;;;;;;;8.65;100.00;100507.63;5053327;28;20115;-77
2023/05/12 02:03:11;;;;;;;12.35;5.68;;;;;;;8.62;100.00;100515.06;5052829;28;20095;-76
2023/05/12 02:05:37;;;;;;;13.20;5.82;;;;;;;8.61;100.00;100519.16;5054494;28;20078;-76
2023/05/12 02:08:06;;;;;;;8.50;6.03;;;;;;;8.55;100.00;100517.44;5054520;28;20020;-77
2023/05/12 02:10:32;;;;;;;11.57;5.72;;;;;;;8.50;100.00;100510.31;5053964;28;20044;-76
2023/05/12 02:12:59;;;;;;;11.35;5.50;;;;;;;8.51;100.00;100520.41;5054478;28;20029;-76
2023/05/12 02:15:25;;;;;;;24.65;7.18;;;;;;;8.53;100.00;100517.91;5052819;28;20421;-75
2023/05/12 02:17:53;;;;;;;9.02;5.45;;;;;;;8.50;100.00;100510.31;5054107;28;20029;-76
2023/05/12 02:20:19;;;;;;;10.20;5.07;;;;;;;8.46;100.00;100509.66;5054324;28;20025;-77
2023/05/12 02:22:46;;;;;;;8.45;5.13;;;;;;;8.44;100.00;100520.75;5053877;28;20024;-77
2023/05/12 02:25:12;;;;;;;11.15;6.50;;;;;;;8.38;100.00;100516.94;5054028;28;20051;-77
2023/05/12 02:27:37;;;;;;;8.50;5.28;;;;;;;8.34;100.00;100504.91;5052680;28;20068;-76
2023/05/12 02:30:18;;;;;;;11.50;5.25;;;;;;;8.32;100.00;100515.97;5053989;28;20021;-76
2023/05/12 02:32:47;;;;;;;8.55;5.57;;;;;;;8.27;100.00;100517.38;5054254;28;20033;-76
2023/05/12 02:35:12;;;;;;;11.80;5.57;;;;;;;8.21;100.00;100507.13;5052650;28;20458;-76
2023/05/12 02:37:39;;;;;;;11.00;5.60;;;;;;;8.21;100.00;100519.28;5053906;28;20025;-76
2023/05/12 02:40:06;;;;;;;8.35;5.25;;;;;;;8.18;100.00;100514.53;5053255;28;20028;-76
2023/05/12 02:42:37;;;;;;;7.93;5.60;;;;;;;8.21;100.00;100524.19;5054372;28;20106;-77
2023/05/12 02:45:03;;;;;;;8.05;5.70;;;;;;;8.15;100.00;100521.16;5064653;28;20054;-77
2023/05/12 02:47:31;;;;;;;9.80;5.82;;;;;;;8.14;100.00;100522.41;5065970;28;20052;-77
2023/05/12 02:50:01;;;;;;;8.15;5.22;;;;;;;8.14;100.00;100530.94;5059607;28;20049;-76
2023/05/12 02:52:30;;;;;;;9.57;5.63;;;;;;;8.09;100.00;100525.06;5054050;28;20063;-77
2023/05/12 02:55:01;;;;;;;11.20;5.93;;;;;;;8.05;100.00;100527.28;5054089;28;20028;-77
2023/05/12 02:57:32;;;;;;;10.63;5.22;;;;;;;8.05;100.00;100519.53;5053656;28;20020;-78
2023/05/12 03:00:00;;;;;;;;;;;;;;;8.00;100.00;100517.31;5054552;28;20021;-76
2023/05/12 03:02:27;;;;;;;5.90;4.90;;;;;;;7.94;100.00;100522.03;5054125;28;19916;-76
2023/05/12 03:04:52;;;;;;;10.98;5.50;;;;;;;7.94;100.00;100527.72;5053276;28;20374;-76
2023/05/12 03:07:18;;;;;;;11.20;5.18;;;;;;;7.93;100.00;100523.28;5053399;28;20496;-76
2023/05/12 03:09:44;;;;;;;10.75;5.45;;;;;;;7.95;100.00;100524.41;5053431;28;20029;-76
2023/05/12 03:12:11;;;;;;;12.00;5.38;;;;;;;7.95;100.00;100529.31;5052152;28;20024;-77
2023/05/12 03:14:36;;;;;;;11.70;5.55;;;;;;;7.96;100.00;100522.38;5033832;28;20434;-77
2023/05/12 03:17:03;;;;;;;11.20;5.90;;;;;;;7.96;100.00;100528.81;5054748;28;20497;-77
2023/05/12 03:19:29;;;;;;;7.70;5.72;;;;;;;7.96;100.00;100525.97;5052135;28;20040;-77
2023/05/12 03:22:02;;;;;;;11.30;5.75;;;;;;;7.97;100.00;100527.56;5053630;28;20025;-77
2023/05/12 03:24:32;;;;;;;12.27;5.68;;;;;;;7.98;100.00;100532.00;5052346;28;20505;-76
2023/05/12 03:26:58;;;;;;;11.25;5.32;;;;;;;7.97;100.00;100533.25;5018899;28;20028;-76
2023/05/12 03:29:24;;;;;;;10.38;5.65;;;;;;;7.94;100.00;100522.03;5051958;28;20029;-76
2023/05/12 03:31:50;;;;;;;8.65;4.97;;;;;;;7.96;100.00;100531.66;5056942;28;20039;-76
2023/05/12 03:34:19;;;;;;;12.32;5.50;;;;;;;8.02;100.00;100537.53;5056392;28;20021;-77
2023/05/12 03:36:44;;;;;;;9.30;5.55;;;;;;;8.03;100.00;100538.34;5056399;28;20521;-76
2023/05/12 03:39:11;;;;;;;8.77;6.30;;;;;;;7.99;100.00;100535.63;5056991;28;20032;-77
2023/05/12 03:41:38;;;;;;;8.90;6.13;;;;;;;8.01;100.00;100535.19;5055755;28;20029;-76
2023/05/12 03:44:09;;;;;;;8.77;5.75;;;;;;;8.03;100.00;100541.19;5055735;28;20031;-77
2023/05/12 03:46:38;;;;;;;11.70;5.80;;;;;;;8.08;100.00;100543.41;5056201;28;20100;-77
2023/05/12 03:49:03;;;;;;;8.68;4.55;;;;;;;8.08;100.00;100549.91;5056799;28;20370;-77
2023/05/12 03:51:30;;;;;;;6.45;4.75;;;;;;;8.16;100.00;100554.03;5057163;28;20446;-78
2023/05/12 03:53:55;;;;;;;12.38;6.22;;;;;;;8.19;100.00;100553.13;5056868;28;20116;-75
2023/05/12 03:56:22;;;;;;;9.05;5.68;;;;;;;8.24;100.00;100554.56;5056678;28;20104;-76
2023/05/12 03:58:48;;;;;;;13.00;5.30;;;;;;;8.28;100.00;100550.28;5055526;28;20086;-75
2023/05/12 04:01:13;;;;;;;11.65;5.72;;;;;;;8.29;100.00;100551.09;5055517;28;20424;-76
2023/05/12 04:03:40;;;;;;;8.25;5.18;;;;;;;8.32;100.00;100559.47;5054998;28;20068;-77
2023/05/12 04:06:07;;;;;;;11.18;5.82;;;;;;;8.36;100.00;100560.09;5056891;28;20346;-77
2023/05/12 04:08:40;;;;;;;11.35;5.47;;;;;;;8.45;100.00;100556.50;5056452;28;20416;-76
2023/05/12 04:11:05;;;;;;;15.15;5.80;;;;;;;8.51;100.00;100563.13;5055497;28;20029;-76
2023/05/12 04:13:32;;;;;;;10.23;5.97;;;;;;;8.59;100.00;100558.75;5056450;28;20032;-76
2023/05/12 04:16:00;;;;;;;9.75;5.88;;;;;;;8.67;100.00;100556.34;5054700;28;20482;-77
2023/05/12 04:18:30;;;;;;;12.88;6.03;;;;;;;8.75;100.00;100560.50;5055517;28;20021;-76
2023/05/12 04:20:55;;;;;;;8.45;4.90;;;;;;;8.83;100.00;100564.59;5054906;28;20044;-76
2023/05/12 04:23:22;;;;;;;8.75;5.53;;;;;;;8.93;100.00;100569.03;5054967;28;20029;-76
2023/05/12 04:25:49;;;;;;;8.80;4.90;;;;;;;9.04;100.00;100569.34;5056277;28;20054;-76
2023/05/12 04:28:15;;;;;;;10.73;5.78;;;;;;;9.19;100.00;100581.69;5056459;28;20381;-76
2023/05/12 04:30:41;;;;;;;10.75;5.40;;;;;;;9.32;100.00;100583.56;5055280;28;20141;-76
2023/05/12 04:33:08;;;;;;;8.32;5.35;;;;;;;9.42;100.00;100582.28;5038642;28;20029;-77
2023/05/12 04:35:33;;;;;;;12.93;5.60;;;;;;;9.48;100.00;100578.31;5054817;28;20035;-77
2023/05/12 04:38:01;;;;;;;11.75;5.13;;;;;;;9.55;100.00;100577.97;5055985;28;20037;-79
2023/05/12 04:40:31;;;;;;;6.72;4.82;;;;;;;9.66;100.00;100580.31;5054052;28;20505;-79
2023/05/12 04:42:57;;;;;;;9.88;5.05;;;;;;;9.75;100.00;100583.19;5037974;28;20398;-79
2023/05/12 04:45:22;;;;;;;11.00;5.25;;;;;;;9.84;100.00;100586.00;5056007;28;20100;-78
2023/05/12 04:47:47;;;;;;;11.23;5.40;;;;;;;9.92;100.00;100570.13;5054741;28;20063;-78
2023/05/12 04:50:14;;;;;;;9.77;5.20;;;;;;;10.22;100.00;100588.22;5055751;28;20060;-81
2023/05/12 04:52:40;;;;;;;9.77;5.07;;;;;;;10.44;100.00;100596.50;5055963;28;20082;-81
2023/05/12 04:55:08;;;;;;;11.32;5.60;;;;;;;10.67;100.00;100592.88;5057077;28;20025;-83
2023/05/12 04:57:34;;;;;;;12.35;5.80;;;;;;;10.88;100.00;100602.41;5054239;28;20027;-78
2023/05/12 05:00:15;;;;;;;8.93;5.47;;;;;;;11.09;98.10;100600.50;5053638;28;20044;-76
2023/05/12 05:02:40;;;;;;;7.30;5.40;;;;;;;11.15;97.15;100590.00;5055254;28;20072;-80
2023/05/12 05:05:07;;;;;;;6.50;5.00;;;;;;;11.32;94.83;100605.44;5054329;28;20386;-80
2023/05/12 05:07:33;;;;;;;9.85;5.03;;;;;;;11.30;94.51;100597.31;5061099;28;20104;-82
2023/05/12 05:09:59;;;;;;;12.13;5.50;;;;;;;11.18;94.13;100603.31;5059920;28;20029;-84
2023/05/12 05:12:25;;;;;;;8.13;5.53;;;;;;;11.16;94.48;100609.53;5055370;28;20102;-82
2023/05/12 05:14:51;;;;;;;10.50;5.97;;;;;;;10.99;94.97;100594.06;5055669;28;20021;-81
2023/05/12 05:17:19;;;;;;;7.78;5.53;;;;;;;11.04;94.95;100610.53;5037521;28;20429;-83
2023/05/12 05:19:45;;;;;;;9.38;5.68;;;;;;;11.08;94.60;100608.28;5038192;28;20021;-84
2023/05/12 05:22:11;;;;;;;9.82;5.40;;;;;;;11.11;93.48;100607.34;5056811;28;20036;-86
2023/05/12 05:24:36;;;;;;;11.38;5.65;;;;;;;11.14;93.06;100605.56;5052916;28;20028;-87
2023/05/12 05:27:07;;;;;;;8.48;5.18;;;;;;;11.15;93.09;100607.94;5036293;28;20020;-84
2023/05/12 05:29:37;;;;;;;12.50;5.38;;;;;;;11.16;93.12;100614.47;5054377;28;20017;-87
2023/05/12 05:32:03;;;;;;;10.05;5.30;;;;;;;11.19;93.63;100614.25;5034172;28;20460;-86
2023/05/12 05:34:31;;;;;;;10.88;5.63;;;;;;;11.28;93.64;100611.31;5034048;28;20031;-86
2023/05/12 05:36:58;;;;;;;14.43;5.60;;;;;;;11.35;93.81;100610.16;5033917;28;20072;-86
2023/05/12 05:39:24;;;;;;;8.63;5.13;;;;;;;11.46;93.76;100601.00;5035611;28;20068;-85
2023/05/12 05:41:52;;;;;;;17.27;5.75;;;;;;;11.51;93.30;100611.75;5032860;28;20026;-85
2023/05/12 05:44:18;;;;;;;12.95;5.60;;;;;;;11.46;93.68;100601.78;5034626;28;20096;-86
2023/05/12 05:46:43;;;;;;;7.75;4.95;;;;;;;11.50;92.95;100605.25;5033471;28;20485;-85
2023/05/12 05:49:08;;;;;;;8.35;5.82;;;;;;;11.62;93.08;100603.34;5035247;28;20466;-86
2023/05/12 05:51:38;;;;;;;13.93;6.00;;;;;;;11.68;93.50;100616.50;5033686;28;20069;-85
2023/05/12 05:54:03;;;;;;;7.03;4.70;;;;;;;11.65;93.04;100614.63;5034524;28;20017;-84
2023/05/12 05:56:29;;;;;;;14.73;6.03;;;;;;;11.69;93.16;100611.56;5033663;28;20095;-83
2023/05/12 05:58:55;;;;;;;10.55;5.60;;;;;;;11.69;93.30;100606.63;5034576;28;20021;-86
2023/05/12 06:01:21;;;;;;;12.50;6.00;;;;;;;11.68;93.92;100610.78;5034783;28;20147;-86
2023/05/12 06:03:48;;;;;;;10.82;5.75;;;;;;;11.88;94.58;100612.16;5034158;28;20402;-86
2023/05/12 06:06:13;;;;;;;16.45;5.50;;;;;;;11.99;94.05;100610.28;5026280;28;20383;-86
2023/05/12 06:08:39;;;;;;;14.05;5.38;;;;;;;12.06;94.39;100609.84;5034555;28;20463;-86
2023/05/12 06:11:11;;;;;;;14.23;6.03;;;;;;;12.27;93.74;100614.38;5033445;28;20065;-86
2023/05/12 06:13:38;;;;;;;12.30;6.15;;;;;;;12.36;91.91;100619.22;5033453;28;20033;-86
2023/05/12 06:16:07;;;;;;;8.45;4.53;;;;;;;12.38;90.76;100615.84;5031309;28;20045;-86
2023/05/12 06:18:36;;;;;;;10.05;5.38;;;;;;;12.45;91.54;100610.50;5017229;28;20021;-86
2023/05/12 06:21:07;;;;;;;10.23;4.72;;;;;;;12.65;89.76;100619.13;5033780;28;20368;-85
2023/05/12 06:23:33;;;;;;;9.65;5.22;;;;;;;12.90;88.29;100628.34;5033518;28;20048;-87
2023/05/12 06:26:00;;;;;;;13.18;5.40;;;;;;;13.14;85.24;100626.06;5037205;28;20494;-87
2023/05/12 06:28:26;;;;;;;12.80;5.30;;;;;;;13.26;85.75;100632.69;5040562;28;20021;-87
2023/05/12 06:30:53;;;;;;;12.98;4.88;;;;;;;14.22;84.47;100631.09;5037542;28;20030;-86
2023/05/12 06:33:19;;;;;;;8.32;4.78;;;;;;;16.34;73.07;100632.72;5034611;28;20036;-87
2023/05/12 06:35:47;;;;;;;9.77;4.10;;;;;;;18.83;57.05;100646.34;5040791;28;20079;-80
2023/05/12 06:38:13;;;;;;;8.98;4.78;;;;;;;21.13;46.95;100645.25;5052699;28;20029;-81
2023/05/12 06:40:40;;;;;;;6.90;4.25;;;;;;;23.24;42.16;100653.91;5033969;28;20120;-79
2023/05/12 06:43:06;;;;;;;9.45;4.60;;;;;;;24.90;34.99;100653.66;5034021;28;20029;-79
2023/05/12 06:45:33;;;;;;;10.90;4.72;;;;;;;26.01;33.09;100647.88;5035991;28;20036;-80
2023/05/12 06:48:04;;;;;;;10.95;4.75;;;;;;;27.16;31.11;100631.72;5034675;28;20029;-79
2023/05/12 06:50:33;;;;;;;8.35;4.05;;;;;;;28.72;30.38;100645.53;5033613;28;20354;-80
2023/05/12 06:52:58;;;;;;;9.10;4.68;;;;;;;29.82;26.67;100639.34;5032264;28;20152;-80
2023/05/12 06:55:25;;;;;;;8.05;4.47;;;;;;;30.09;25.67;100631.84;5034956;28;20445;-78
2023/05/12 06:57:54;;;;;;;10.75;4.45;;;;;;;30.55;25.38;100622.72;5041104;28;20063;-80
2023/05/12 07:00:24;;;;;;;8.93;4.72;;;;;;;30.74;25.47;100624.03;5038591;28;20049;-78
2023/05/12 07:02:53;;;;;;;9.55;4.63;;;;;;;31.68;25.31;100615.16;5032227;28;20521;-80
2023/05/12 07:05:20;;;;;;;6.32;4.50;;;;;;;31.78;24.20;100609.94;5032677;28;20064;-78
2023/05/12 07:07:46;;;;;;;8.35;4.63;;;;;;;31.61;24.45;100612.38;5031970;28;20037;-80
2023/05/12 07:10:12;;;;;;;9.40;4.47;;;;;;;32.17;23.21;100619.16;5033122;28;20082;-79
2023/05/12 07:12:38;;;;;;;6.90;4.15;;;;;;;32.99;22.91;100608.13;5033366;28;20052;-77
2023/05/12 07:15:05;;;;;;;6.88;4.90;;;;;;;33.54;22.11;100605.56;5033366;28;20415;-78
2023/05/12 07:17:31;;;;;;;6.57;4.45;;;;;;;33.27;21.52;100618.03;5033366;28;20052;-80
2023/05/12 07:19:58;;;;;;;6.93;3.92;;;;;;;32.33;21.63;100609.81;5033333;28;20040;-79
2023/05/12 07:22:25;;;;;;;10.63;4.20;;;;;;;32.60;22.39;100610.06;5031931;28;20029;-77
2023/05/12 07:24:53;;;;;;;9.43;5.45;;;;;;;32.52;23.09;100606.59;5033451;28;20402;-81
2023/05/12 07:27:20;;;;;;;11.10;4.25;;;;;;;32.21;22.31;100604.66;5033908;28;20431;-78
2023/05/12 07:30:00;;;;;;;7.40;4.22;;;;;;;32.46;21.81;100609.16;5033213;28;20028;-79
2023/05/12 07:32:25;;;;;;;6.07;4.43;;;;;;;33.03;22.19;100604.69;5033136;28;20489;-78
2023/05/12 07:34:52;;;;;;;9.25;4.22;;;;;;;33.81;20.83;100602.00;5033187;28;20029;-79
2023/05/12 07:37:18;;;;;;;4.80;3.08;;;;;;;34.10;20.62;100593.31;5033077;28;20044;-79
2023/05/12 07:39:44;;;;;;;4.43;3.47;;;;;;;34.40;20.27;100599.44;5031645;28;20116;-79
2023/05/12 07:42:11;;;;;;;6.72;3.33;;;;;;;34.54;21.11;100600.22;5033389;28;20021;-78
2023/05/12 07:44:36;;;;;;;6.85;3.83;;;;;;;34.75;20.44;100603.69;5032904;28;20350;-78
2023/05/12 07:47:04;;;;;;;4.75;3.58;;;;;;;34.94;19.59;100592.78;5032958;28;20018;-79
2023/05/12 07:49:30;;;;;;;6.65;3.72;;;;;;;34.18;20.08;100593.78;5033104;28;20037;-79
2023/05/12 07:51:55;;;;;;;8.10;3.83;;;;;;;33.78;20.16;100597.34;5031791;28;20056;-79
2023/05/12 07:54:21;;;;;;;9.07;3.80;;;;;;;33.49;20.48;100600.81;5031806;28;20052;-78
2023/05/12 07:56:48;;;;;;;6.03;3.55;;;;;;;33.90;21.03;100595.09;5033042;28;20029;-80
2023/05/12 07:59:15;;;;;;;6.82;3.53;;;;;;;34.71;20.17;100600.47;5032937;28;20076;-80
2023/05/12 08:01:42;;;;;;;7.50;3.42;;;;;;;34.35;20.68;100592.50;5015088;28;20076;-80
2023/05/12 08:04:08;;;;;;;9.90;3.35;;;;;;;34.56;20.43;100589.22;5032447;28;20049;-78
2023/05/12 08:06:35;;;;;;;4.93;3.25;;;;;;;34.71;19.90;100597.50;5031934;28;20154;-80
2023/05/12 08:09:00;;;;;;;8.30;3.30;;;;;;;33.93;19.81;100596.75;5030518;28;20478;-79
2023/05/12 08:11:26;;;;;;;5.38;3.85;;;;;;;32.19;20.66;100592.66;5033057;28;20029;-78
2023/05/12 08:13:54;;;;;;;5.95;3.60;;;;;;;31.61;22.08;100586.56;5032963;28;20163;-79
2023/05/12 08:16:21;;;;;;;5.10;3.60;;;;;;;30.71;21.77;100595.78;5032766;28;20509;-77
2023/05/12 08:18:46;;;;;;;5.00;3.33;;;;;;;30.25;22.80;100604.97;5035150;28;20029;-79
2023/05/12 08:21:11;;;;;;;6.45;3.60;;;;;;;30.25;23.32;100599.09;5036217;28;20029;-78
2023/05/12 08:23:37;;;;;;;5.13;3.22;;;;;;;31.04;23.48;100602.56;5036299;28;20022;-81
2023/05/12 08:26:03;;;;;;;5.40;3.22;;;;;;;31.95;22.81;100605.84;5018475;28;20029;-79
2023/05/12 08:28:30;;;;;;;5.45;3.38;;;;;;;32.68;22.10;100595.84;5036736;28;20044;-80
2023/05/12 08:30:58;;;;;;;6.22;3.28;;;;;;;33.07;21.49;100590.88;5036519;28;20029;-77
2023/05/12 08:33:24;;;;;;;5.40;3.75;;;;;;;33.26;20.79;100595.75;5051400;28;20034;-79
2023/05/12 08:35:50;;;;;;;8.43;3.45;;;;;;;32.67;20.74;100591.28;5036200;28;20033;-79
2023/05/12 08:38:16;;;;;;;5.90;2.95;;;;;;;32.36;21.21;100599.66;5036310;28;20068;-80
2023/05/12 08:41:12;;;;;;;5.22;3.53;;;;;;;32.15;21.92;100592.38;5035972;28;20022;-74
2023/05/12 08:43:49;;;;;;;5.55;3.22;;;;;;;32.10;21.38;100598.69;5036074;28;20130;-75
2023/05/12 08:46:16;;;;;;;4.63;2.72;;;;;;;31.93;21.87;100602.00;5036074;28;20022;-75
2023/05/12 08:48:45;;;;;;;4.43;3.22;;;;;;;31.84;22.95;100594.78;5034679;28;20475;-74
2023/05/12 08:51:12;;;;;;;8.98;3.78;;;;;;;31.85;22.34;100607.38;5019782;28;20034;-73
2023/05/12 08:53:41;;;;;;;5.85;3.10;;;;;;;31.66;22.62;100596.47;5018636;28;20499;-74
2023/05/12 08:56:23;;;;;;;5.80;3.13;;;;;;;31.00;22.45;100596.38;5034309;28;20536;-73
2023/05/12 08:58:50;;;;;;;5.05;3.25;;;;;;;30.78;22.66;100598.53;5035513;28;20029;-73
2023/05/12 09:01:18;;;;;;;6.55;3.20;;;;;;;30.58;23.73;100594.88;5034530;28;20032;-74
2023/05/12 09:03:45;;;;;;;9.02;3.05;;;;;;;30.22;23.78;100595.19;5033917;28;20061;-74
2023/05/12 09:06:15;;;;;;;12.43;3.10;;;;;;;29.98;24.45;100587.50;5033067;28;20053;-72
2023/05/12 09:08:41;;;;;;;5.25;3.45;;;;;;;29.64;24.09;100598.25;5034187;28;20033;-73
2023/05/12 09:11:10;;;;;;;2.80;2.47;;;;;;;29.22;24.36;100589.91;5035390;28;20025;-72
2023/05/12 09:13:53;;;;;;;8.02;2.97;;;;;;;28.79;24.49;100606.34;5034121;28;20475;-74
2023/05/12 09:16:29;;;;;;;5.78;3.42;;;;;;;28.27;26.15;100587.44;5035744;28;20036;-75
2023/05/12 09:18:57;;;;;;;5.43;3.17;;;;;;;28.08;26.37;100593.22;5033896;28;20383;-76
2023/05/12 09:21:24;;;;;;;4.03;2.72;;;;;;;28.25;26.40;100599.78;5033672;28;20077;-75
2023/05/12 09:24:04;;;;;;;3.65;2.95;;;;;;;28.03;25.76;100592.13;5033987;28;20040;-74
2023/05/12 09:26:52;;;;;;;3.95;2.90;;;;;;;27.56;26.80;100599.19;5017059;28;20036;-74
2023/05/12 09:29:22;;;;;;;6.20;2.70;;;;;;;27.46;27.35;100592.47;5032254;28;20031;-74
2023/05/12 09:31:53;;;;;;;3.33;2.60;;;;;;;27.35;27.33;100593.00;5033600;28;20378;-74
2023/05/12 09:34:30;;;;;;;6.57;3.30;;;;;;;27.16;27.58;100591.41;5033697;28;20029;-75
2023/05/12 09:37:02;;;;;;;7.38;3.17;;;;;;;27.07;27.73;100594.25;5033489;28;20295;-74
2023/05/12 09:39:28;;;;;;;5.78;2.75;;;;;;;27.08;28.18;100599.53;5033675;28;20044;-74
2023/05/12 09:41:54;;;;;;;4.32;2.60;;;;;;;26.95;27.70;100587.38;5034951;28;20100;-76
2023/05/12 09:44:28;;;;;;;5.38;3.03;;;;;;;26.65;28.23;100588.41;5033728;28;20397;-74
2023/05/12 09:46:54;;;;;;;5.25;3.83;;;;;;;26.35;28.59;100595.31;5034928;28;20048;-73
2023/05/12 09:49:25;;;;;;;4.60;2.75;;;;;;;26.22;28.65;100590.50;5033360;28;20025;-75
2023/05/12 09:51:58;;;;;;;5.97;2.60;;;;;;;25.99;29.41;100584.00;5033219;28;20430;-75
2023/05/12 09:54:29;;;;;;;4.78;2.70;;;;;;;25.87;28.96;100580.78;5033145;28;20032;-75
2023/05/12 09:57:07;;;;;;;3.25;2.78;;;;;;;25.82;28.49;100587.63;5033183;28;20088;-75
2023/05/12 09:59:35;;;;;;;7.35;3.10;;;;;;;25.63;28.68;100580.72;5034680;28;20017;-74
2023/05/12 10:02:10;;;;;;;4.65;2.45;;;;;;;25.34;29.26;100583.13;5034309;28;20033;-77
2023/05/12 10:04:56;;;;;;;5.68;2.13;;;;;;;25.12;29.73;100575.22;5033127;28;20017;-74
2023/05/12 10:07:36;;;;;;;7.78;3.15;;;;;;;24.89;29.80;100578.22;5033014;28;20029;-73
2023/05/12 10:10:06;;;;;;;6.65;2.92;;;;;;;24.79;30.37;100580.16;5033952;28;20037;-75
2023/05/12 10:12:34;;;;;;;10.07;3.17;;;;;;;24.68;30.62;100584.25;5032892;28;20086;-76
2023/05/12 10:15:01;;;;;;;7.40;2.83;;;;;;;24.33;30.79;100565.59;5034196;28;20068;-77
2023/05/12 10:17:41;;;;;;;4.47;2.80;;;;;;;24.13;31.27;100581.13;5032717;28;20042;-77
2023/05/12 10:20:08;;;;;;;6.00;3.03;;;;;;;23.83;31.37;100576.00;5033009;28;20026;-78
2023/05/12 10:22:39;;;;;;;6.38;3.25;;;;;;;23.69;31.36;100571.69;5033955;28;20032;-77
2023/05/12 10:25:07;;;;;;;;;;;;;;;23.60;31.89;100575.94;5034295;28;20425;-78
2023/05/12 10:27:35;;;;;;;6.30;2.38;;;;;;;23.16;30.84;100580.97;5033020;28;19963;-76
2023/05/12 10:30:03;;;;;;;3.35;2.38;;;;;;;22.72;31.34;100561.81;5016057;28;20378;-77
2023/05/12 10:32:32;;;;;;;6.97;2.90;;;;;;;22.97;31.58;100582.59;5032375;28;20025;-75
2023/05/12 10:35:11;;;;;;;3.60;2.22;;;;;;;23.05;30.71;100571.78;5032372;28;20025;-76
2023/05/12 10:37:42;;;;;;;6.20;2.90;;;;;;;22.80;31.45;100565.56;5032453;28;20132;-77
2023/05/12 10:40:10;;;;;;;7.78;2.40;;;;;;;22.49;30.95;100547.88;5032260;28;20428;-78
2023/05/12 10:42:40;;;;;;;6.78;3.05;;;;;;;22.66;32.02;100570.75;5033061;28;20418;-78
2023/05/12 10:45:17;;;;;;;7.82;2.60;;;;;;;22.38;31.83;100565.66;5016788;28;20037;-77
2023/05/12 10:47:43;;;;;;;7.60;2.97;;;;;;;22.26;32.12;100581.09;5035219;28;20025;-77
2023/05/12 10:50:12;;;;;;;5.72;2.92;;;;;;;22.16;33.51;100568.34;5034585;28;20033;-78
2023/05/12 10:52:40;;;;;;;7.97;2.90;;;;;;;22.40;32.83;100565.09;5036855;28;20029;-77
2023/05/12 10:55:12;;;;;;;8.07;2.95;;;;;;;22.48;32.90;100565.91;5033324;28;20025;-76
2023/05/12 10:57:50;;;;;;;2.95;2.67;;;;;;;21.95;32.64;100571.25;5032883;28;20075;-77
2023/05/12 11:00:21;;;;;;;4.25;2.83;;;;;;;21.86;32.99;100574.66;5034818;28;20083;-78
2023/05/12 11:02:51;;;;;;;9.43;2.70;;;;;;;21.87;33.73;100577.00;5032350;28;20441;-78
2023/05/12 11:05:18;;;;;;;5.32;2.40;;;;;;;21.57;33.38;100562.13;5032452;28;20083;-78
2023/05/12 11:07:55;;;;;;;3.15;1.92;;;;;;;21.39;33.90;100572.53;5033634;28;20375;-77
2023/05/12 11:10:22;;;;;;;6.72;3.17;;;;;;;21.13;34.79;100573.38;5032285;28;20029;-78
2023/05/12 11:12:48;;;;;;;5.05;2.72;;;;;;;20.87;35.02;100579.22;5032347;28;20382;-78
2023/05/12 11:15:15;;;;;;;7.38;3.17;;;;;;;20.95;35.04;100582.22;5015549;28;20037;-78
2023/05/12 11:17:41;;;;;;;7.43;2.83;;;;;;;21.12;35.32;100571.03;5032256;28;20101;-78
2023/05/12 11:20:13;;;;;;;4.40;3.28;;;;;;;21.49;34.61;100576.56;5031866;28;20445;-78
2023/05/12 11:22:40;;;;;;;3.13;2.60;;;;;;;21.84;34.99;100577.34;5031873;28;20104;-77
2023/05/12 11:25:10;;;;;;;4.25;2.95;;;;;;;21.92;33.74;100578.22;5033234;28;20025;-79
2023/05/12 11:27:41;;;;;;;4.40;2.53;;;;;;;21.80;33.84;100574.78;5033575;28;20045;-77
2023/05/12 11:30:09;;;;;;;5.13;2.05;;;;;;;21.61;34.13;100565.47;5033326;28;20026;-77